Accueil
METAR-TAF:

METAR-TAF

Aéroports :

Nice, France

Aéroport de Nice-Côte d'Azur

latitude: 43-39N, longitude: 007-12E, altitude: 4 m

Observation

Le bulletin a été fait il y a 30 minutes, à 22:30 UTC
Vent 8 kt de nord/nord-ouest
Température 24°C
Humidité 50%
Pression 1017 hPa
Visibilité 10 km ou plus
pas de nuages en-dessous de 1500 mètres et pas de cumulonimbus.

METAR: LFMN 202230Z 33008KT CAVOK 24/13 Q1017 NOSIG

Heure: 01:00 (23:00 UTC)

Prévision

Le bulletin a été fait il y a 3 heures et 0 minutes, à 20:00 UTC
Prévision valable du 20 à 21 UTC au 22 à 03 UTC
Vent 4 kt de direction variable
Visibilité 10 km ou plus
pas de nuages en-dessous de 1500 mètres et pas de cumulonimbus.
Evoluant progressivement
du 21 à 08 UTC au 21 à 10 UTC
Vent 6 kt de sud
Evoluant progressivement
du 21 à 18 UTC au 21 à 20 UTC
Vent 3 kt de direction variable

TAF: LFMN 202000Z 2021/2203 VRB04KT CAVOK BECMG 2108/2110 17006KT BECMG 2118/2120 VRB03KT

Observations et prévisions météorologiques de plus de 4000 aéroports (messages METAR et TAF).

Les stations disponibles sont représentées par des disques jaunes et rouges sur la carte.

Passer la souris dessus pour voir le nom de la station.

Cliquer dessus pour voir les observations et prévisions météorologiques.

Pour changer de carte: cliquez sur les boutons verts avec une croix noire pour zoomer, sur le bouton vert avec un tiret pour effectuer un zoom arrière, ou sur les flèches vertes pour les cartes adjacentes.


METAR-TAF: